| time (UTC) | temp F | wind direction | speed knots | gust knots | rain 1hr in | rain 24hr in | rain mn in | humidity % | barometer mb |
| 20260905222738 | 72 | 270 | 0.0 | 0.0 | 0.00 | 0.00 | 0.00 | 50 | 1014.5 |
| 20260905222230 | 77 | 113 | 0.0 | 0.0 | 0.00 | 0.00 | 0.00 | 44 | 1014.6 |
| 20260905203526 | 77 | 45 | 0.0 | 0.0 | 0.00 | 0.00 | 0.00 | 43 | 1015.4 |
| 20260905203022 | 77 | 23 | 1.7 | 1.7 | 0.00 | 0.00 | 0.00 | 42 | 1015.4 |
| 20260905202510 | 76 | 203 | 0.0 | 0.0 | 0.00 | 0.00 | 0.00 | 43 | 1015.6 |
| 20260905183602 | 69 | 338 | 0.9 | 0.9 | 0.00 | 0.00 | 0.00 | 57 | 1017.1 |
| 20260905183058 | 69 | 23 | 0.9 | 0.9 | 0.00 | 0.00 | 0.00 | 56 | 1017.1 |
| 20260905182547 | 69 | 113 | 0.0 | 0.0 | 0.00 | 0.00 | 0.00 | 59 | 1017.1 |
| 20260905182041 | 67 | 45 | 0.9 | 0.9 | 0.00 | 0.00 | 0.00 | 62 | 1017.2 |
| 20260905175816 | 67 | 23 | 0.0 | 0.0 | 0.00 | 0.00 | 0.00 | 61 | 1017.4 |
| 20260905175308 | 66 | 0 | 0.9 | 0.9 | 0.00 | 0.00 | 0.00 | 64 | 1017.4 |
| 20260905174758 | 66 | 338 | 0.9 | 0.9 | 0.00 | 0.00 | 0.00 | 63 | 1017.5 |
| 20260905174253 | 66 | 113 | 0.0 | 0.0 | 0.00 | 0.00 | 0.00 | 63 | 1017.5 |
| 20260905173748 | 64 | 135 | 1.7 | 1.7 | 0.00 | 0.00 | 0.00 | 66 | 1017.5 |
| 20260905173243 | 65 | 270 | 0.0 | 0.0 | 0.00 | 0.00 | 0.00 | 67 | 1017.6 |
| 20260905172738 | 64 | 113 | 0.0 | 0.0 | 0.00 | 0.00 | 0.00 | 66 | 1017.6 |
| 20260905172228 | 64 | 135 | 1.7 | 1.7 | 0.00 | 0.00 | 0.00 | 66 | 1017.6 |
| 20260905171723 | 64 | 338 | 0.9 | 0.9 | 0.00 | 0.00 | 0.00 | 68 | 1017.6 |
| 20260905171218 | 63 | 90 | 0.9 | 0.9 | 0.00 | 0.00 | 0.00 | 68 | 1017.7 |
| 20260905170215 | 58 | 338 | 0.0 | 0.0 | 0.00 | 0.00 | 0.00 | 74 | 1017.7 |
| 20260905030600 | 58 | 248 | 0.0 | 0.0 | 0.00 | 0.00 | 0.00 | 74 | 1015.9 |
| 20260905030053 | 58 | 248 | 0.0 | 0.0 | 0.00 | 0.00 | 0.00 | 74 | 1015.8 |
| 20260905024538 | 60 | 90 | 0.0 | 0.0 | 0.00 | 0.00 | 0.00 | 71 | 1015.7 |
| 20260905023523 | 60 | 180 | 0.0 | 0.0 | 0.00 | 0.00 | 0.00 | 69 | 1015.7 |
| 20260905023018 | 60 | 158 | 0.9 | 0.9 | 0.00 | 0.00 | 0.00 | 69 | 1015.7 |
| 20260905022513 | 60 | 180 | 0.0 | 0.0 | 0.00 | 0.00 | 0.00 | 69 | 1015.6 |
| 20260905020955 | 61 | 225 | 0.0 | 0.0 | 0.00 | 0.00 | 0.00 | 69 | 1015.5 |
| 20260905015945 | 62 | 270 | 0.0 | 0.0 | 0.00 | 0.00 | 0.00 | 65 | 1015.4 |
| 20260905015438 | 62 | 203 | 0.0 | 0.0 | 0.00 | 0.00 | 0.00 | 67 | 1015.4 |
| 20260905014928 | 62 | 180 | 0.0 | 0.0 | 0.00 | 0.00 | 0.00 | 65 | 1015.4 |
| 20260905014423 | 62 | 180 | 0.0 | 0.0 | 0.00 | 0.00 | 0.00 | 66 | 1015.4 |
| 20260905013918 | 62 | 90 | 0.0 | 0.0 | 0.00 | 0.00 | 0.00 | 68 | 1015.4 |
| 20260905013413 | 62 | 338 | 0.0 | 0.0 | 0.00 | 0.00 | 0.00 | 68 | 1015.3 |
| 20260905012908 | 62 | 45 | 0.0 | 0.0 | 0.00 | 0.00 | 0.00 | 69 | 1015.3 |
| 20260905011853 | 63 | 23 | 0.0 | 0.0 | 0.00 | 0.00 | 0.00 | 66 | 1015.2 |
| 20260905011349 | 63 | 113 | 0.0 | 0.0 | 0.00 | 0.00 | 0.00 | 67 | 1015.2 |
| 20260905010843 | 63 | 203 | 0.9 | 0.9 | 0.00 | 0.00 | 0.00 | 69 | 1015.2 |
| 20260905010338 | 63 | 203 | 0.0 | 0.0 | 0.00 | 0.00 | 0.00 | 68 | 1015.2 |
| 20260905005829 | 63 | 248 | 0.0 | 0.0 | 0.00 | 0.00 | 0.00 | 63 | 1015.2 |
| 20260905005323 | 63 | 203 | 0.0 | 0.0 | 0.00 | 0.00 | 0.00 | 62 | 1015.2 |
| 20260905004818 | 64 | 248 | 0.0 | 0.0 | 0.00 | 0.00 | 0.00 | 60 | 1015.0 |
| 20260905004313 | 64 | 225 | 0.0 | 0.0 | 0.00 | 0.00 | 0.00 | 59 | 1015.0 |
| 20260905003300 | 64 | 23 | 1.7 | 1.7 | 0.00 | 0.00 | 0.00 | 59 | 1015.0 |
| 20260905002753 | 65 | 225 | 0.0 | 0.0 | 0.00 | 0.00 | 0.00 | 60 | 1015.0 |
| 20260905002250 | 64 | 270 | 0.0 | 0.0 | 0.00 | 0.00 | 0.00 | 61 | 1014.8 |
| 20260905001743 | 64 | 158 | 0.0 | 0.0 | 0.00 | 0.00 | 0.00 | 61 | 1014.8 |
| 20260905001238 | 64 | 225 | 0.0 | 0.0 | 0.00 | 0.00 | 0.00 | 60 | 1015.0 |
| 20260905000728 | 65 | 225 | 0.0 | 0.0 | 0.00 | 0.00 | 0.00 | 59 | 1015.0 |
| 20260904234032 | 64 | 225 | 0.0 | 0.0 | 0.00 | 0.00 | 0.00 | 60 | 1014.6 |
| 20260904233523 | 65 | 225 | 0.9 | 0.9 | 0.00 | 0.00 | 0.00 | 58 | 1014.6 |
| 20260904232513 | 65 | 225 | 0.0 | 0.0 | 0.00 | 0.00 | 0.00 | 56 | 1014.6 |
| 20260904232008 | 65 | 225 | 1.7 | 1.7 | 0.00 | 0.00 | 0.00 | 58 | 1014.6 |
| 20260904231502 | 65 | 225 | 0.9 | 0.9 | 0.00 | 0.00 | 0.00 | 57 | 1014.6 |
| 20260904230954 | 66 | 180 | 0.9 | 0.9 | 0.00 | 0.00 | 0.00 | 59 | 1014.5 |
| 20260904230448 | 66 | 225 | 0.9 | 0.9 | 0.00 | 0.00 | 0.00 | 56 | 1014.5 |
| 20260904225942 | 67 | 158 | 0.0 | 0.0 | 0.00 | 0.00 | 0.00 | 56 | 1014.5 |
| 20260904225437 | 67 | 270 | 0.0 | 0.0 | 0.00 | 0.00 | 0.00 | 58 | 1014.5 |
| 20260904224947 | 65 | 225 | 0.0 | 0.0 | 0.00 | 0.00 | 0.00 | 58 | 1014.5 |